x

South Nomad (46036) Wave Buoy

2:00am - Sun 24th Sep 2017 All times are UTC.

  • Sig Wave height 5.9ft
  • Peak Period 7s
  • Wind
    13mph, 18mph gusts
  • Sea Temp 60°f
  • Air Temp 58°f
  • Sea Pressure 1020.9mb

More Historic Weather Station data

Upgrade to MSW Pro to gain access to the past 30 days of data for over 8000 Wavebouys and Weather Stations around the globe.

Join

Comparision Forecast

View Surf forecast
   
Sun 09/24 2:00am 6ft 7s 13 18 mph 1020.9mb 60f 58f
1:00am 6ft 9s 13 18 mph 1020.9mb 60f 58f
12:00am 5.5ft 6s 16 20 mph 1021.2mb 60f 58f
Sat 09/23 11:00pm 5ft 10s 18 22 mph 1021.5mb 60f 58f
10:00pm 5.5ft 7s 16 20 mph 1021.8mb 60f 59f
9:00pm 5ft 10s 18 20 mph 1022mb 60f 58f
8:00pm 5ft 7s 16 18 mph 1022.1mb 59f 58f
7:00pm 4.5ft 10s 16 18 mph 1022.1mb 59f 58f
6:00pm 4.5ft 8s 16 18 mph 1022.1mb 59f 58f
5:00pm 4.5ft 11s 13 16 mph 1022.2mb 59f 57f
4:00pm 5ft 7s 16 20 mph 1022.5mb 59f 58f
3:00pm 5ft 7s 13 16 mph 1022.2mb 59f 58f
2:00pm 5ft 12s 16 18 mph 1022.4mb 59f 58f
1:00pm 4.5ft 12s 20 25 mph 1022.2mb 59f 58f
12:00pm 4.5ft 5s 16 18 mph 1022.2mb 59f 59f
11:00am 4.5ft 7s 16 18 mph 1022.1mb 59f 59f
10:00am 4.5ft 5s 16 18 mph 1022.1mb 59f 59f
9:00am 4.5ft 6s 16 18 mph 1022.4mb 59f 59f
8:00am 4.5ft 6s 13 16 mph 1022.6mb 59f 60f
7:00am 4.5ft 11s 13 16 mph 1022.9mb 59f 60f
6:00am 4.5ft 7s 16 18 mph 1023mb 59f 60f
5:00am 4.5ft 6s 13 16 mph 1023.2mb 59f 60f
4:00am 4.5ft 10s 13 16 mph 1023.4mb 59f 60f
3:00am 4.5ft 10s 18 22 mph 1023.3mb 60f 60f
2:00am 4.5ft 12s 13 16 mph 1023.6mb 60f 60f
1:00am 4ft 12s 13 16 mph 1023.5mb 60f 60f
12:00am 4.5ft 7s 11 13 mph 1023.8mb 60f 60f
Fri 09/22 11:00pm 4.5ft 7s 13 18 mph 1024mb 59f 60f
10:00pm 5ft 7s 13 18 mph 1024.2mb 59f 60f
9:00pm 4.5ft 7s 13 16 mph 1024.3mb 59f 60f
8:00pm 5.5ft 7s 11 13 mph 1024.6mb 59f 59f
7:00pm 5.5ft 8s 11 13 mph 1024.6mb 59f 59f
6:00pm 5.5ft 7s 11 13 mph 1024.5mb 59f 59f
5:00pm 6ft 8s 9 13 mph 1024.6mb 59f 59f
4:00pm 5.5ft 8s 11 16 mph 1024.4mb 59f 59f
3:00pm 5.5ft 8s 13 18 mph 1024.2mb 59f 58f
2:00pm 6ft 8s 16 18 mph 1024.1mb 59f 58f
1:00pm 6.5ft 8s 13 18 mph 1024.3mb 59f 57f
12:00pm 6.5ft 7s 16 20 mph 1024.2mb 59f 58f
11:00am  -   -  18
mph
1024.2mb - 58f
10:00am 6.5ft 7s 16 18 mph 1024.3mb 59f 58f
9:00am 7.5ft 8s 13 18 mph 1024.4mb 59f 58f
8:00am 7.5ft 8s 18 20 mph 1024.7mb 59f 57f
7:00am 7.5ft 8s 18 20 mph 1024.9mb 59f 57f
6:00am 7.5ft 8s 18 22 mph 1025mb 59f 57f
5:00am 7.5ft 8s 18 22 mph 1024.9mb 59f 57f
4:00am 8ft 8s 20 22 mph 1024.7mb 59f 57f
3:00am 8ft 8s 22 27 mph 1024.5mb 59f 57f
2:00am 9ft 8s 22 27 mph 1024.3mb 59f 57f
1:00am 9ft 8s 22 25 mph 1024.3mb 59f 57f
12:00am 10ft 8s 22 29 mph 1024.2mb 59f 58f
Thu 09/21 11:00pm 10ft 8s 22 27 mph 1024mb 59f 58f
10:00pm 11ft 8s 22 27 mph 1023.8mb 59f 58f
9:00pm 10.5ft 8s 25 29 mph 1023.7mb 60f 58f
8:00pm 10ft 8s 22 27 mph 1023.5mb 60f 58f
7:00pm 10ft 8s 25 29 mph 1023.4mb 60f 58f
4:00pm 11ft 8s 25 29 mph 1022.8mb 59f 58f
3:00pm 10ft 8s 25 31 mph 1022.5mb 59f 58f
2:00pm 10ft 9s 27 34 mph 1022.1mb 59f 58f
1:00pm 10ft 9s 25 31 mph 1022.2mb 59f 58f
12:00pm  -   -  27
mph
1022mb - 58f
11:00am 11ft 9s 25 31 mph 1021.9mb 60f 58f
10:00am 11ft 9s 27 31 mph 1021.7mb 60f 58f
9:00am 11ft 9s 25 29 mph 1021.6mb 60f 58f
8:00am 12.5ft 9s 25 31 mph 1021.4mb 60f 58f
7:00am 12ft 9s 25 34 mph 1021mb 60f 58f
6:00am  -   -  25
mph
1021mb - 58f
5:00am 12.5ft 10s 27 34 mph 1020.8mb 60f 59f
4:00am 12ft 10s 27 34 mph 1020.5mb 60f 58f
3:00am 12ft 10s 27 31 mph 1020.3mb 60f 59f
2:00am 12ft 10s 27 34 mph 1020mb 60f 59f
1:00am 12ft 10s 27 34 mph 1019.5mb 60f 59f
12:00am 11ft 10s 27 34 mph 1019.1mb 60f 59f
Wed 09/20 10:00pm 11ft 10s 25 31 mph 1018.4mb 60f 58f
9:00pm 13ft 10s 25 29 mph 1018.2mb 60f 59f
8:00pm 11.5ft 10s 25 31 mph 1017.6mb 60f 58f
7:00pm 12.5ft 9s 25 29 mph 1017.3mb 60f 58f
6:00pm 12ft 10s 27 31 mph 1016.5mb 60f 57f
5:00pm 12ft 9s 27 31 mph 1015.7mb 60f 57f
4:00pm 13ft 8s 29 34 mph 1015.3mb 60f 57f
3:00pm 13ft 10s 34 43 mph 1015mb 60f 55f
2:00pm 13ft 9s 27 31 mph 1014.5mb 60f 57f
1:00pm 13ft 10s 25 31 mph 1014.2mb 60f 57f
12:00pm 13ft 10s 27 34 mph 1013.8mb 60f 57f
11:00am 12ft 9s 27 34 mph 1013.4mb 60f 57f
10:00am 12.5ft 9s 29 34 mph 1013.2mb 60f 57f
9:00am 12.5ft 9s 27 34 mph 1012.8mb 60f 57f
8:00am 12.5ft 10s 27 31 mph 1012.4mb 60f 57f
7:00am 13ft 10s 25 31 mph 1012.2mb 60f 56f
6:00am 12ft 8s 29 36 mph 1012.1mb 60f 57f
5:00am 11.5ft 9s 29 38 mph 1012mb 60f 56f
4:00am 12ft 8s 27 34 mph 1011.9mb 60f 57f